createdAt,value
2023-10-11T00:02:06.889Z,18.00
2023-10-11T00:05:08.662Z,18.10
2023-10-11T00:08:14.355Z,18.10
2023-10-11T00:11:20.314Z,18.20
2023-10-11T00:14:22.046Z,19.60
2023-10-11T00:17:23.647Z,17.70
2023-10-11T00:20:40.646Z,19.10
2023-10-11T00:23:47.285Z,17.70
2023-10-11T00:26:50.816Z,17.70
2023-10-11T00:29:53.643Z,17.80
2023-10-11T00:32:55.377Z,17.60
2023-10-11T00:35:57.138Z,17.60
2023-10-11T00:38:58.982Z,19.20
2023-10-11T00:42:00.868Z,17.80
2023-10-11T00:45:03.689Z,17.70
2023-10-11T00:48:08.027Z,17.90
2023-10-11T00:51:11.477Z,17.60
2023-10-11T00:54:16.396Z,17.50
2023-10-11T00:57:19.461Z,17.70
2023-10-11T01:00:24.967Z,17.80
2023-10-11T01:03:26.878Z,17.70
2023-10-11T01:06:29.815Z,17.50
2023-10-11T01:09:31.524Z,17.60
2023-10-11T01:12:33.726Z,17.70
2023-10-11T01:15:35.315Z,17.50
2023-10-11T01:18:40.376Z,17.50
2023-10-11T01:21:47.605Z,20.00
2023-10-11T01:24:49.206Z,17.50
2023-10-11T01:27:50.918Z,17.50
2023-10-11T01:30:52.951Z,17.80
2023-10-11T01:33:54.672Z,17.30
2023-10-11T01:36:56.535Z,18.10
2023-10-11T01:39:58.180Z,17.60
2023-10-11T01:43:00.377Z,17.40
2023-10-11T01:46:01.998Z,19.00
2023-10-11T01:49:06.893Z,17.50
2023-10-11T01:52:08.667Z,17.20
2023-10-11T01:55:19.428Z,17.50
2023-10-11T01:58:21.018Z,17.80
2023-10-11T02:01:26.962Z,17.60
2023-10-11T02:04:30.213Z,17.40
2023-10-11T02:07:32.713Z,17.30
2023-10-11T02:10:37.441Z,17.60
2023-10-11T02:13:40.825Z,17.50
2023-10-11T02:16:42.539Z,19.10
2023-10-11T02:19:44.735Z,17.70
2023-10-11T02:22:46.295Z,17.40
2023-10-11T02:25:49.080Z,19.20
2023-10-11T02:28:52.346Z,17.40
2023-10-11T02:31:54.943Z,17.10
2023-10-11T02:34:56.541Z,17.30
2023-10-11T02:38:00.329Z,17.30
2023-10-11T02:41:03.477Z,17.10
2023-10-11T02:44:05.449Z,17.30
2023-10-11T02:47:08.150Z,17.10
2023-10-11T02:50:09.980Z,17.40
2023-10-11T02:53:24.085Z,17.10
2023-10-11T02:56:25.763Z,18.30
2023-10-11T02:59:27.459Z,19.10
2023-10-11T03:02:31.325Z,17.50
2023-10-11T03:05:33.184Z,17.30
2023-10-11T03:08:35.289Z,17.30
2023-10-11T03:11:46.469Z,18.20
2023-10-11T03:14:56.176Z,17.30
2023-10-11T03:17:58.227Z,18.30
2023-10-11T03:21:20.677Z,17.00
2023-10-11T03:24:25.400Z,18.50
2023-10-11T03:27:37.449Z,17.10
2023-10-11T03:30:39.726Z,17.50
2023-10-11T03:33:41.939Z,18.30
2023-10-11T03:36:50.710Z,16.90
2023-10-11T03:39:58.654Z,17.00
2023-10-11T03:43:02.466Z,17.00
2023-10-11T03:46:05.730Z,18.10
2023-10-11T03:49:19.414Z,16.90
2023-10-11T03:52:31.701Z,16.90
2023-10-11T03:55:33.591Z,18.20
2023-10-11T03:58:38.602Z,16.90
2023-10-11T04:01:40.412Z,17.20
2023-10-11T04:04:43.808Z,16.90
2023-10-11T04:07:45.736Z,16.90
2023-10-11T04:10:50.737Z,17.60
2023-10-11T04:13:54.251Z,18.10
2023-10-11T04:16:57.425Z,19.00
2023-10-11T04:20:18.358Z,16.70
2023-10-11T04:23:25.620Z,18.00
2023-10-11T04:26:34.882Z,16.70
2023-10-11T04:29:39.450Z,17.10
2023-10-11T04:32:46.878Z,17.10
2023-10-11T04:35:57.233Z,16.90
2023-10-11T04:39:14.824Z,17.00
2023-10-11T04:42:18.237Z,16.80
2023-10-11T04:45:23.349Z,17.00
2023-10-11T04:48:41.014Z,18.30
2023-10-11T04:51:46.234Z,17.00
2023-10-11T04:54:57.004Z,17.10
2023-10-11T04:58:09.436Z,16.60
2023-10-11T05:01:13.035Z,16.70
2023-10-11T05:04:16.513Z,17.80
2023-10-11T05:07:21.246Z,16.90
2023-10-11T05:10:22.961Z,16.90
2023-10-11T05:13:37.490Z,16.80
2023-10-11T05:16:45.797Z,16.80
2023-10-11T05:20:04.814Z,16.90
2023-10-11T05:23:06.718Z,16.90
2023-10-11T05:26:28.326Z,16.90
2023-10-11T05:29:32.701Z,16.90
2023-10-11T05:32:42.532Z,16.80
2023-10-11T05:35:47.596Z,16.90
2023-10-11T05:39:08.488Z,16.60
2023-10-11T05:42:28.640Z,16.50
2023-10-11T05:45:48.915Z,18.30
2023-10-11T05:49:09.390Z,16.70
2023-10-11T05:52:11.056Z,16.60
2023-10-11T05:55:13.861Z,17.40
2023-10-11T05:58:15.900Z,16.80
2023-10-11T06:01:24.334Z,16.50
2023-10-11T06:04:26.156Z,16.50
2023-10-11T06:07:35.509Z,16.50
2023-10-11T06:10:42.791Z,16.50
2023-10-11T06:13:44.469Z,17.90
2023-10-11T06:16:59.581Z,16.70
2023-10-11T06:20:21.622Z,16.80
2023-10-11T06:23:23.224Z,16.80
2023-10-11T06:26:50.754Z,16.70
2023-10-11T06:29:55.658Z,17.00
2023-10-11T06:32:57.973Z,17.00
2023-10-11T06:35:59.847Z,16.80
2023-10-11T06:39:05.670Z,17.10
2023-10-11T06:42:22.876Z,17.20
2023-10-11T06:45:29.424Z,17.00
2023-10-11T06:48:31.165Z,18.60
2023-10-11T06:51:33.479Z,17.20
2023-10-11T06:54:35.090Z,17.10
2023-10-11T06:57:40.833Z,16.90
2023-10-11T07:00:49.382Z,17.00
2023-10-11T07:03:53.354Z,17.10
2023-10-11T07:06:55.145Z,17.40
2023-10-11T07:09:59.554Z,18.30
2023-10-11T07:13:05.271Z,17.20
2023-10-11T07:16:10.130Z,17.40
2023-10-11T07:19:16.924Z,17.70
2023-10-11T07:22:27.094Z,17.20
2023-10-11T07:25:37.999Z,17.30
2023-10-11T07:28:39.746Z,17.50
2023-10-11T07:31:50.145Z,19.70
2023-10-11T07:34:55.773Z,17.80
2023-10-11T07:37:57.896Z,17.90
2023-10-11T07:41:05.785Z,17.60
2023-10-11T07:44:07.901Z,17.90
2023-10-11T07:47:16.745Z,17.90
2023-10-11T07:50:25.199Z,19.30
2023-10-11T07:53:27.112Z,17.90
2023-10-11T07:56:29.185Z,18.10
2023-10-11T07:59:32.267Z,18.30
2023-10-11T08:02:43.076Z,18.90
2023-10-11T08:05:51.390Z,18.10
2023-10-11T08:09:00.594Z,18.20
2023-10-11T08:12:09.068Z,19.50
2023-10-11T08:15:12.323Z,18.10
2023-10-11T08:18:17.315Z,18.60
2023-10-11T08:21:19.564Z,18.20
2023-10-11T08:24:26.390Z,20.60
2023-10-11T08:27:28.354Z,18.30
2023-10-11T08:30:32.552Z,20.20
2023-10-11T08:33:34.244Z,18.70
2023-10-11T08:36:35.919Z,19.60
2023-10-11T08:39:42.786Z,18.60
2023-10-11T08:42:49.509Z,18.60
2023-10-11T08:45:53.815Z,18.80
2023-10-11T08:48:55.782Z,18.70
2023-10-11T08:52:03.444Z,19.90
2023-10-11T08:55:07.441Z,18.70
2023-10-11T08:58:14.285Z,18.70
2023-10-11T09:01:19.534Z,20.50
2023-10-11T09:04:28.221Z,20.10
2023-10-11T09:07:46.697Z,20.00
2023-10-11T09:10:50.469Z,19.30
2023-10-11T09:13:52.329Z,19.10
2023-10-11T09:17:03.809Z,20.20
2023-10-11T09:20:16.381Z,19.90
2023-10-11T09:23:24.357Z,19.10
2023-10-11T09:26:42.506Z,19.20
2023-10-11T09:29:50.071Z,19.30
2023-10-11T09:32:53.235Z,19.40
2023-10-11T09:36:04.917Z,20.80
2023-10-11T09:39:06.581Z,20.60
2023-10-11T09:42:12.557Z,20.30
2023-10-11T09:45:18.753Z,19.40
2023-10-11T09:48:23.403Z,20.30
2023-10-11T09:51:27.360Z,19.70
2023-10-11T09:54:29.213Z,21.60
2023-10-11T09:57:42.888Z,20.60
2023-10-11T10:00:45.006Z,21.10
2023-10-11T10:03:48.552Z,21.50
2023-10-11T10:07:12.980Z,21.40
2023-10-11T10:10:16.977Z,20.10
2023-10-11T10:13:18.671Z,22.10
2023-10-11T10:16:20.365Z,22.40
2023-10-11T10:19:25.127Z,20.60
2023-10-11T10:22:32.798Z,20.80
2023-10-11T10:25:34.531Z,20.60
2023-10-11T10:28:46.775Z,22.50
2023-10-11T10:32:07.813Z,20.40
2023-10-11T10:35:22.029Z,20.90
2023-10-11T10:38:24.086Z,21.00
2023-10-11T10:41:31.804Z,20.90
2023-10-11T10:44:33.965Z,20.60
2023-10-11T10:47:38.093Z,21.50
2023-10-11T10:50:50.479Z,21.90
2023-10-11T10:53:52.523Z,20.70
2023-10-11T10:56:58.940Z,20.70
2023-10-11T11:00:22.474Z,23.20
2023-10-11T11:03:25.290Z,20.90
2023-10-11T11:06:38.484Z,21.20
2023-10-11T11:09:40.184Z,21.40
2023-10-11T11:12:41.930Z,21.80
2023-10-11T11:15:45.488Z,21.20
2023-10-11T11:18:48.216Z,21.00
2023-10-11T11:21:49.880Z,21.30
2023-10-11T11:24:53.709Z,21.20
2023-10-11T11:28:18.412Z,22.30
2023-10-11T11:31:26.033Z,22.70
2023-10-11T11:34:28.738Z,22.60
2023-10-11T11:37:31.972Z,22.80
2023-10-11T11:40:48.691Z,21.40
2023-10-11T11:43:50.302Z,21.70
2023-10-11T11:46:54.087Z,23.10
2023-10-11T11:50:01.129Z,21.60
2023-10-11T11:53:04.180Z,24.00
2023-10-11T11:56:08.609Z,21.80
2023-10-11T11:59:18.728Z,22.20
2023-10-11T12:02:21.889Z,22.80
2023-10-11T12:05:23.536Z,23.20
2023-10-11T12:08:25.861Z,23.60
2023-10-11T12:11:32.115Z,21.90
2023-10-11T12:14:38.373Z,22.40
2023-10-11T12:17:40.402Z,22.00
2023-10-11T12:20:48.961Z,21.70
2023-10-11T12:23:52.027Z,21.80
2023-10-11T12:26:59.152Z,21.90
2023-10-11T12:30:09.336Z,22.30
2023-10-11T12:33:11.541Z,21.90
2023-10-11T12:36:16.128Z,23.70
2023-10-11T12:39:30.768Z,23.10
2023-10-11T12:42:35.085Z,22.80
2023-10-11T12:45:37.817Z,22.20
2023-10-11T12:48:39.446Z,22.00
2023-10-11T12:51:43.179Z,22.50
2023-10-11T12:54:44.905Z,21.70
2023-10-11T12:57:46.522Z,22.50
2023-10-11T13:00:59.721Z,21.80
2023-10-11T13:04:09.911Z,22.60
2023-10-11T13:07:14.833Z,22.40
2023-10-11T13:10:16.967Z,21.90
2023-10-11T13:13:19.285Z,21.60
2023-10-11T13:16:28.453Z,23.70
2023-10-11T13:19:31.911Z,22.70
2023-10-11T13:22:33.618Z,21.60
2023-10-11T13:25:35.286Z,21.80
2023-10-11T13:28:37.828Z,21.50
2023-10-11T13:31:41.627Z,22.50
2023-10-11T13:34:43.564Z,22.00
2023-10-11T13:37:48.070Z,21.60
2023-10-11T13:40:51.485Z,21.60
2023-10-11T13:43:53.238Z,23.40
2023-10-11T13:46:56.923Z,23.30
2023-10-11T13:50:00.519Z,21.40
2023-10-11T13:53:05.321Z,21.20
2023-10-11T13:56:32.582Z,23.30
2023-10-11T13:59:38.898Z,21.50
2023-10-11T14:02:45.500Z,23.60
2023-10-11T14:05:51.790Z,21.40
2023-10-11T14:08:53.742Z,21.50
2023-10-11T14:11:55.374Z,23.40
2023-10-11T14:14:57.438Z,23.00
2023-10-11T14:17:59.197Z,21.60
2023-10-11T14:21:02.301Z,21.50
2023-10-11T14:24:08.660Z,21.70
2023-10-11T14:27:10.369Z,21.70
2023-10-11T14:30:15.968Z,21.90
2023-10-11T14:33:19.416Z,21.70
2023-10-11T14:36:24.455Z,21.50
2023-10-11T14:39:26.449Z,23.30
2023-10-11T14:42:30.865Z,21.50
2023-10-11T14:45:34.989Z,21.60
2023-10-11T14:48:36.897Z,22.80
2023-10-11T14:51:40.758Z,21.40
2023-10-11T14:54:45.816Z,22.10
2023-10-11T14:57:51.341Z,22.90
2023-10-11T15:00:54.871Z,21.60
2023-10-11T15:04:01.665Z,21.60
2023-10-11T15:07:07.518Z,21.80
2023-10-11T15:10:11.847Z,21.50
2023-10-11T15:13:13.537Z,20.30
2023-10-11T15:16:15.670Z,21.40
2023-10-11T15:19:17.413Z,21.80
2023-10-11T15:22:22.845Z,23.50
2023-10-11T15:25:26.879Z,23.20
2023-10-11T15:28:32.319Z,21.50
2023-10-11T15:31:34.788Z,21.40
2023-10-11T15:34:41.006Z,21.40
2023-10-11T15:37:47.538Z,21.10
2023-10-11T15:41:00.942Z,22.00
2023-10-11T15:44:03.801Z,21.30
2023-10-11T15:47:05.524Z,21.00
2023-10-11T15:50:07.671Z,21.00
2023-10-11T15:53:09.369Z,21.30
2023-10-11T15:56:14.222Z,20.90
2023-10-11T15:59:19.285Z,21.10
2023-10-11T16:02:21.101Z,21.00
2023-10-11T16:05:23.968Z,20.90
2023-10-11T16:08:25.605Z,21.00
2023-10-11T16:11:31.295Z,23.30
2023-10-11T16:14:32.932Z,21.90
2023-10-11T16:17:35.108Z,22.70
2023-10-11T16:20:36.831Z,20.60
2023-10-11T16:23:39.966Z,20.60
2023-10-11T16:26:42.452Z,20.40
2023-10-11T16:29:44.038Z,20.60
2023-10-11T16:32:45.690Z,21.30
2023-10-11T16:35:50.356Z,20.30
2023-10-11T16:38:57.349Z,20.80
2023-10-11T16:41:59.080Z,22.30
2023-10-11T16:45:00.955Z,20.80
2023-10-11T16:48:05.775Z,20.40
2023-10-11T16:51:14.142Z,21.00
2023-10-11T16:54:17.569Z,20.40
2023-10-11T16:57:21.055Z,20.40
2023-10-11T17:00:23.358Z,21.20
2023-10-11T17:03:25.224Z,20.10
2023-10-11T17:06:27.017Z,21.80
2023-10-11T17:09:31.032Z,20.10
2023-10-11T17:12:34.109Z,19.90
2023-10-11T17:15:36.552Z,21.40
2023-10-11T17:18:38.396Z,20.10
2023-10-11T17:21:40.343Z,20.90
2023-10-11T17:24:42.048Z,19.90
2023-10-11T17:27:45.616Z,20.10
2023-10-11T17:30:47.445Z,21.40
2023-10-11T17:33:49.542Z,20.00
2023-10-11T17:36:51.288Z,21.80
2023-10-11T17:39:52.947Z,20.00
2023-10-11T17:42:59.429Z,20.30
2023-10-11T17:46:01.250Z,20.00
2023-10-11T17:49:05.227Z,21.00
2023-10-11T17:52:08.661Z,21.30
2023-10-11T17:55:12.066Z,21.20
2023-10-11T17:58:13.658Z,20.20
2023-10-11T18:01:17.526Z,20.00
2023-10-11T18:04:19.603Z,19.70
2023-10-11T18:07:21.465Z,20.20
2023-10-11T18:10:23.419Z,19.70
2023-10-11T18:13:25.281Z,19.90
2023-10-11T18:16:30.445Z,19.70
2023-10-11T18:19:32.226Z,21.20
2023-10-11T18:22:34.014Z,19.80
2023-10-11T18:25:35.927Z,19.90
2023-10-11T18:28:38.310Z,21.20
2023-10-11T18:31:39.968Z,19.90
2023-10-11T18:34:42.480Z,19.60
2023-10-11T18:37:44.142Z,19.50
2023-10-11T18:40:46.754Z,20.90
2023-10-11T18:43:51.065Z,19.30
2023-10-11T18:46:52.739Z,19.50
2023-10-11T18:49:55.326Z,19.40
2023-10-11T18:52:58.466Z,19.40
2023-10-11T18:56:05.075Z,20.20
2023-10-11T18:59:08.374Z,21.10
2023-10-11T19:02:10.731Z,19.60
2023-10-11T19:05:19.531Z,19.50
2023-10-11T19:08:21.286Z,19.50
2023-10-11T19:11:27.261Z,19.40
2023-10-11T19:14:29.973Z,19.10
2023-10-11T19:17:33.678Z,19.30
2023-10-11T19:20:35.418Z,19.50
2023-10-11T19:23:37.265Z,20.80
2023-10-11T19:26:39.078Z,19.40
2023-10-11T19:29:41.173Z,21.30
2023-10-11T19:32:42.879Z,19.60
2023-10-11T19:35:44.925Z,19.90
2023-10-11T19:38:47.926Z,19.40
2023-10-11T19:41:49.685Z,19.40
2023-10-11T19:44:51.307Z,19.50
2023-10-11T19:47:55.143Z,19.40
2023-10-11T19:50:56.805Z,21.60
2023-10-11T19:53:58.658Z,19.70
2023-10-11T19:57:01.120Z,19.40
2023-10-11T20:00:03.305Z,19.50
2023-10-11T20:03:12.907Z,19.10
2023-10-11T20:06:16.116Z,20.90
2023-10-11T20:09:17.809Z,19.20
2023-10-11T20:12:19.940Z,19.50
2023-10-11T20:15:23.285Z,19.50
2023-10-11T20:18:27.130Z,19.00
2023-10-11T20:21:28.931Z,20.50
2023-10-11T20:24:32.882Z,21.20
2023-10-11T20:27:35.630Z,19.00
2023-10-11T20:30:42.377Z,19.10
2023-10-11T20:33:44.440Z,19.20
2023-10-11T20:36:46.110Z,21.20
2023-10-11T20:39:48.332Z,19.20
2023-10-11T20:42:59.217Z,19.10
2023-10-11T20:46:01.088Z,19.40
2023-10-11T20:49:02.710Z,20.60
2023-10-11T20:52:04.549Z,19.40
2023-10-11T20:55:08.353Z,19.50
2023-10-11T20:58:14.840Z,19.40
2023-10-11T21:01:17.526Z,21.70
2023-10-11T21:04:19.412Z,19.40
2023-10-11T21:07:21.459Z,19.00
2023-10-11T21:10:23.518Z,21.40
2023-10-11T21:13:31.538Z,18.90
2023-10-11T21:16:34.924Z,20.10
2023-10-11T21:19:36.606Z,19.60
2023-10-11T21:22:41.628Z,19.20
2023-10-11T21:25:47.521Z,20.60
2023-10-11T21:28:54.947Z,19.30
2023-10-11T21:31:56.970Z,19.20
2023-10-11T21:35:00.922Z,19.30
2023-10-11T21:38:03.563Z,21.10
2023-10-11T21:41:06.308Z,19.30
2023-10-11T21:44:07.887Z,20.50
2023-10-11T21:47:10.286Z,20.10
2023-10-11T21:50:13.157Z,19.20
2023-10-11T21:53:14.901Z,21.30
2023-10-11T21:56:17.002Z,20.50
2023-10-11T21:59:18.612Z,21.20
2023-10-11T22:02:21.196Z,19.30
2023-10-11T22:05:23.183Z,19.40
2023-10-11T22:08:25.207Z,19.30
2023-10-11T22:11:27.848Z,19.30
2023-10-11T22:14:29.520Z,19.40
2023-10-11T22:17:31.860Z,19.40
2023-10-11T22:20:33.647Z,21.10
2023-10-11T22:23:35.476Z,19.20
2023-10-11T22:26:37.400Z,19.20
2023-10-11T22:29:39.594Z,20.60
2023-10-11T22:32:41.986Z,19.00
2023-10-11T22:35:44.020Z,19.30
2023-10-11T22:38:47.629Z,21.50
2023-10-11T22:41:49.370Z,19.00
2023-10-11T22:44:51.720Z,19.00
2023-10-11T22:47:54.773Z,19.00
2023-10-11T22:50:57.003Z,19.10
2023-10-11T22:54:01.928Z,21.10
2023-10-11T22:57:03.908Z,19.00
2023-10-11T23:00:17.107Z,19.30
2023-10-11T23:03:19.239Z,19.30
2023-10-11T23:06:21.171Z,19.80
2023-10-11T23:09:22.779Z,20.70
2023-10-11T23:12:25.913Z,19.20
2023-10-11T23:15:51.106Z,19.20
2023-10-11T23:18:54.474Z,19.00
2023-10-11T23:21:56.952Z,19.40
2023-10-11T23:24:58.692Z,19.30
2023-10-11T23:28:07.142Z,19.30
2023-10-11T23:31:10.604Z,19.50
2023-10-11T23:34:13.897Z,19.30
2023-10-11T23:37:16.255Z,19.10
2023-10-11T23:40:30.138Z,19.30
2023-10-11T23:43:31.724Z,19.10
2023-10-11T23:46:36.808Z,19.00
2023-10-11T23:49:42.678Z,19.40
2023-10-11T23:52:45.324Z,19.10
2023-10-11T23:55:46.981Z,19.00
2023-10-11T23:58:58.200Z,19.20
